KISN/ISN METAR and TAF weather

Enter ICAO airport designator
Station Type Date Time Source
KISN METAR 2019/10/18 13:53 UTC NOAA

KISN 181353Z AUTO RMK AO2 SLPNO PWINO FZRANO TSNO PNO $


Station Type Date Time Source
KISN Decoded METAR 2019/10/18 13:53 UTC NOAA

SLOULIN FIELD INTERNATIONAL AIRPORT, ND, United States (KISN) 48-11N 103-39W 579M
Oct 18, 2019 - 09:53 AM EDT / 2019.10.18 1353 UTC
ob: KISN 181353Z AUTO RMK AO2 SLPNO PWINO FZRANO TSNO PNO
cycle: 14

Station Type Date Time Source
KISN TAF 2019/10/18 00:42 UTC NOAA

TAF KISN 182340Z 1900/1924 29014KT P6SM SKC
FM190300 25007KT P6SM FEW250
FM191400 26011KT P6SM FEW250

Example: see airport list